createdAt,value
2023-04-20T00:01:05.989Z,8.82
2023-04-20T00:03:35.453Z,7.57
2023-04-20T00:06:03.176Z,7.22
2023-04-20T00:08:30.790Z,6.53
2023-04-20T00:10:58.140Z,7.10
2023-04-20T00:13:27.144Z,9.73
2023-04-20T00:15:54.506Z,7.22
2023-04-20T00:18:21.990Z,5.75
2023-04-20T00:20:49.428Z,6.85
2023-04-20T00:23:16.856Z,6.82
2023-04-20T00:25:44.251Z,9.20
2023-04-20T00:28:11.688Z,6.50
2023-04-20T00:30:42.770Z,8.88
2023-04-20T00:33:10.831Z,7.57
2023-04-20T00:35:38.329Z,6.75
2023-04-20T00:38:05.955Z,8.40
2023-04-20T00:40:35.239Z,7.35
2023-04-20T00:43:14.785Z,6.32
2023-04-20T00:45:43.630Z,9.27
2023-04-20T00:48:11.298Z,8.20
2023-04-20T00:50:39.956Z,6.32
2023-04-20T00:53:09.048Z,6.68
2023-04-20T00:55:37.446Z,7.65
2023-04-20T00:58:05.240Z,5.22
2023-04-20T01:00:34.329Z,6.80
2023-04-20T01:03:03.275Z,8.45
2023-04-20T01:07:58.347Z,5.70
2023-04-20T01:10:25.864Z,9.68
2023-04-20T01:12:53.301Z,10.80
2023-04-20T01:15:20.978Z,6.07
2023-04-20T01:17:49.605Z,6.30
2023-04-20T01:20:20.419Z,6.75
2023-04-20T01:22:50.902Z,10.27
2023-04-20T01:25:18.541Z,7.22
2023-04-20T01:27:46.805Z,7.30
2023-04-20T01:30:14.415Z,6.28
2023-04-20T01:32:41.990Z,7.13
2023-04-20T01:35:10.463Z,8.10
2023-04-20T01:37:38.751Z,5.93
2023-04-20T01:40:09.866Z,8.55
2023-04-20T01:42:37.431Z,7.10
2023-04-20T01:45:05.831Z,6.75
2023-04-20T01:47:34.631Z,8.38
2023-04-20T01:50:02.514Z,5.65
2023-04-20T01:52:30.086Z,9.18
2023-04-20T01:54:57.504Z,6.72
2023-04-20T01:57:26.861Z,5.38
2023-04-20T01:59:54.587Z,6.55
2023-04-20T02:02:22.005Z,6.60
2023-04-20T02:04:49.373Z,6.43
2023-04-20T02:07:16.935Z,10.40
2023-04-20T02:09:44.301Z,6.68
2023-04-20T02:12:11.745Z,10.40
2023-04-20T02:14:41.639Z,7.82
2023-04-20T02:17:11.480Z,5.97
2023-04-20T02:19:39.229Z,8.95
2023-04-20T02:22:07.236Z,6.82
2023-04-20T02:24:34.824Z,6.90
2023-04-20T02:27:02.508Z,6.82
2023-04-20T02:29:30.059Z,8.93
2023-04-20T02:31:58.972Z,8.18
2023-04-20T02:34:26.472Z,7.40
2023-04-20T02:36:57.541Z,10.82
2023-04-20T02:39:25.013Z,8.90
2023-04-20T02:41:55.020Z,9.48
2023-04-20T02:44:22.457Z,6.28
2023-04-20T02:46:50.698Z,10.80
2023-04-20T02:49:20.536Z,9.07
2023-04-20T02:51:48.068Z,8.82
2023-04-20T02:54:15.579Z,8.85
2023-04-20T02:56:43.382Z,8.57
2023-04-20T02:59:11.576Z,6.32
2023-04-20T03:01:53.058Z,6.00
2023-04-20T03:04:25.885Z,7.53
2023-04-20T03:07:00.526Z,10.27
2023-04-20T03:09:31.106Z,8.27
2023-04-20T03:12:08.490Z,8.10
2023-04-20T03:14:58.986Z,7.80
2023-04-20T03:17:39.205Z,7.80
2023-04-20T03:20:09.326Z,6.97
2023-04-20T03:22:37.572Z,6.35
2023-04-20T03:25:07.732Z,8.80
2023-04-20T03:27:49.439Z,7.10
2023-04-20T03:30:16.840Z,10.68
2023-04-20T03:32:47.379Z,9.30
2023-04-20T03:35:17.614Z,7.03
2023-04-20T03:37:45.409Z,8.10
2023-04-20T03:40:13.284Z,7.20
2023-04-20T03:42:41.182Z,7.35
2023-04-20T03:45:09.456Z,7.07
2023-04-20T03:47:36.954Z,8.05
2023-04-20T03:50:05.611Z,7.50
2023-04-20T03:52:34.705Z,6.95
2023-04-20T03:55:06.246Z,8.73
2023-04-20T04:00:04.789Z,12.00
2023-04-20T04:02:45.652Z,8.55
2023-04-20T04:05:14.981Z,10.48
2023-04-20T04:07:43.859Z,7.82
2023-04-20T04:10:14.313Z,10.48
2023-04-20T04:12:41.797Z,11.63
2023-04-20T04:15:10.707Z,11.32
2023-04-20T04:17:45.812Z,8.60
2023-04-20T04:20:14.079Z,14.88
2023-04-20T04:22:43.320Z,11.27
2023-04-20T04:25:28.210Z,9.70
2023-04-20T04:27:55.784Z,11.35
2023-04-20T04:30:24.149Z,10.02
2023-04-20T04:32:52.135Z,13.20
2023-04-20T04:35:20.088Z,10.65
2023-04-20T04:37:49.231Z,7.28
2023-04-20T04:40:18.207Z,11.05
2023-04-20T04:42:45.925Z,8.15
2023-04-20T04:45:13.606Z,9.23
2023-04-20T04:47:42.562Z,9.45
2023-04-20T04:50:11.340Z,7.32
2023-04-20T04:52:39.061Z,8.75
2023-04-20T04:55:09.758Z,7.55
2023-04-20T04:57:38.716Z,10.27
2023-04-20T05:00:11.905Z,10.55
2023-04-20T05:02:39.848Z,11.23
2023-04-20T05:05:09.967Z,8.85
2023-04-20T05:07:38.340Z,9.25
2023-04-20T05:10:08.887Z,8.43
2023-04-20T05:12:36.451Z,10.13
2023-04-20T05:15:04.540Z,9.40
2023-04-20T05:17:32.185Z,9.23
2023-04-20T05:19:59.572Z,10.63
2023-04-20T05:22:27.013Z,15.02
2023-04-20T05:24:54.458Z,10.40
2023-04-20T05:27:23.358Z,10.95
2023-04-20T05:29:50.919Z,10.48
2023-04-20T05:32:18.600Z,10.70
2023-04-20T05:34:46.045Z,10.23
2023-04-20T05:37:15.050Z,10.68
2023-04-20T05:39:42.531Z,12.18
2023-04-20T05:42:09.913Z,12.00
2023-04-20T05:44:41.150Z,13.50
2023-04-20T05:47:08.811Z,14.77
2023-04-20T05:49:36.431Z,15.30
2023-04-20T05:52:03.996Z,13.75
2023-04-20T05:54:31.505Z,12.40
2023-04-20T05:56:58.931Z,12.25
2023-04-20T05:59:26.487Z,9.98
2023-04-20T06:01:56.224Z,11.65
2023-04-20T06:04:24.067Z,10.52
2023-04-20T06:06:52.117Z,11.27
2023-04-20T06:09:19.899Z,13.35
2023-04-20T06:11:47.411Z,12.65
2023-04-20T06:14:14.772Z,11.95
2023-04-20T06:16:42.220Z,13.68
2023-04-20T06:19:11.176Z,11.52
2023-04-20T06:21:38.628Z,11.10
2023-04-20T06:24:07.939Z,13.30
2023-04-20T06:26:35.375Z,12.55
2023-04-20T06:29:03.153Z,13.70
2023-04-20T06:31:30.628Z,17.90
2023-04-20T06:33:58.267Z,10.90
2023-04-20T06:36:28.521Z,16.75
2023-04-20T06:38:56.305Z,15.35
2023-04-20T06:41:24.070Z,12.13
2023-04-20T06:43:51.650Z,12.95
2023-04-20T06:46:19.188Z,14.38
2023-04-20T06:48:46.644Z,14.48
2023-04-20T06:51:14.171Z,11.55
2023-04-20T06:53:42.927Z,10.85
2023-04-20T06:56:11.425Z,12.23
2023-04-20T06:58:38.888Z,14.68
2023-04-20T07:01:06.456Z,19.00
2023-04-20T07:03:34.150Z,13.65
2023-04-20T07:06:02.083Z,13.10
2023-04-20T07:08:29.461Z,10.43
2023-04-20T07:10:58.189Z,12.50
2023-04-20T07:13:25.963Z,12.70
2023-04-20T07:15:53.478Z,13.98
2023-04-20T07:18:20.992Z,11.13
2023-04-20T07:20:48.398Z,11.30
2023-04-20T07:23:16.017Z,11.70
2023-04-20T07:25:43.490Z,13.75
2023-04-20T07:28:12.489Z,11.35
2023-04-20T07:33:08.306Z,11.07
2023-04-20T07:35:35.948Z,12.45
2023-04-20T07:38:03.679Z,15.32
2023-04-20T07:40:31.041Z,13.73
2023-04-20T07:42:58.477Z,15.85
2023-04-20T07:45:27.550Z,13.90
2023-04-20T07:47:55.510Z,13.55
2023-04-20T07:50:23.146Z,10.73
2023-04-20T07:52:50.723Z,11.00
2023-04-20T07:55:18.636Z,11.20
2023-04-20T07:57:46.217Z,11.63
2023-04-20T08:00:15.122Z,12.90
2023-04-20T08:02:46.794Z,9.60
2023-04-20T08:05:14.773Z,12.20
2023-04-20T08:07:42.302Z,11.50
2023-04-20T08:10:10.589Z,14.65
2023-04-20T08:12:39.829Z,11.35
2023-04-20T08:15:08.854Z,12.32
2023-04-20T08:17:36.516Z,13.07
2023-04-20T08:20:07.239Z,13.65
2023-04-20T08:22:35.038Z,12.57
2023-04-20T08:25:02.689Z,12.00
2023-04-20T08:29:59.284Z,12.48
2023-04-20T08:32:27.151Z,10.63
2023-04-20T08:34:55.694Z,12.30
2023-04-20T08:37:25.771Z,13.18
2023-04-20T08:39:53.282Z,13.25
2023-04-20T08:42:21.033Z,12.63
2023-04-20T08:44:48.451Z,11.02
2023-04-20T08:47:15.979Z,12.05
2023-04-20T08:49:44.543Z,11.75
2023-04-20T08:52:12.088Z,12.07
2023-04-20T08:54:55.379Z,14.05
2023-04-20T08:57:24.653Z,11.75
2023-04-20T08:59:52.132Z,12.52
2023-04-20T09:02:19.790Z,10.30
2023-04-20T09:04:49.284Z,11.65
2023-04-20T09:07:18.539Z,11.07
2023-04-20T09:09:57.379Z,9.00
2023-04-20T09:12:25.265Z,9.93
2023-04-20T09:14:53.663Z,9.32
2023-04-20T09:17:32.173Z,8.98
2023-04-20T09:19:59.696Z,9.88
2023-04-20T09:22:31.307Z,8.70
2023-04-20T09:25:01.213Z,9.05
2023-04-20T09:27:28.964Z,9.30
2023-04-20T09:29:58.070Z,8.18
2023-04-20T09:32:28.056Z,8.63
2023-04-20T09:34:56.115Z,8.73
2023-04-20T09:37:23.805Z,10.35
2023-04-20T09:39:51.457Z,11.43
2023-04-20T09:42:20.663Z,10.55
2023-04-20T09:44:49.204Z,10.00
2023-04-20T09:47:18.971Z,10.27
2023-04-20T09:49:47.778Z,11.13
2023-04-20T09:52:18.333Z,9.20
2023-04-20T09:54:46.359Z,7.43
2023-04-20T09:57:14.571Z,9.00
2023-04-20T09:59:46.788Z,8.35
2023-04-20T10:02:14.757Z,8.35
2023-04-20T10:04:53.086Z,9.63
2023-04-20T10:07:24.919Z,8.50
2023-04-20T10:10:03.335Z,7.82
2023-04-20T10:12:30.813Z,7.97
2023-04-20T10:15:01.237Z,8.00
2023-04-20T10:17:33.144Z,9.07
2023-04-20T10:20:00.720Z,8.48
2023-04-20T10:22:33.524Z,9.88
2023-04-20T10:25:02.412Z,8.80
2023-04-20T10:30:10.678Z,12.13
2023-04-20T10:32:38.279Z,9.63
2023-04-20T10:35:08.603Z,8.60
2023-04-20T10:37:46.718Z,11.15
2023-04-20T10:40:14.148Z,8.30
2023-04-20T10:42:42.846Z,10.43
2023-04-20T10:45:12.189Z,9.88
2023-04-20T10:47:42.436Z,9.85
2023-04-20T10:50:11.493Z,9.07
2023-04-20T10:52:40.179Z,10.30
2023-04-20T10:55:18.915Z,9.40
2023-04-20T10:57:46.391Z,9.57
2023-04-20T11:00:17.288Z,9.20
2023-04-20T11:02:50.255Z,9.65
2023-04-20T11:05:18.792Z,12.98
2023-04-20T11:07:56.259Z,9.05
2023-04-20T11:10:36.441Z,10.35
2023-04-20T11:13:03.915Z,12.20
2023-04-20T11:15:33.546Z,10.45
2023-04-20T11:18:07.323Z,9.82
2023-04-20T11:20:35.173Z,11.65
2023-04-20T11:23:05.069Z,8.93
2023-04-20T11:25:32.553Z,11.13
2023-04-20T11:28:06.424Z,12.68
2023-04-20T11:30:40.050Z,12.05
2023-04-20T11:33:07.802Z,11.10
2023-04-20T11:35:37.794Z,11.55
2023-04-20T11:38:05.611Z,9.95
2023-04-20T11:40:33.368Z,11.32
2023-04-20T11:43:00.987Z,11.00
2023-04-20T11:45:35.203Z,11.38
2023-04-20T11:48:06.033Z,10.40
2023-04-20T11:50:33.532Z,11.95
2023-04-20T11:53:01.003Z,10.20
2023-04-20T11:55:28.425Z,12.75
2023-04-20T11:57:55.927Z,10.30
2023-04-20T12:00:23.624Z,9.35
2023-04-20T12:02:51.373Z,11.48
2023-04-20T12:05:20.474Z,9.00
2023-04-20T12:07:47.855Z,9.88
2023-04-20T12:10:15.292Z,9.88
2023-04-20T12:12:42.694Z,10.18
2023-04-20T12:15:10.760Z,9.18
2023-04-20T12:17:38.261Z,8.20
2023-04-20T12:20:08.657Z,9.98
2023-04-20T12:22:37.747Z,7.90
2023-04-20T12:25:06.839Z,8.55
2023-04-20T12:30:01.737Z,12.63
2023-04-20T12:32:30.775Z,10.25
2023-04-20T12:34:59.180Z,11.77
2023-04-20T12:37:27.218Z,9.27
2023-04-20T12:39:56.033Z,7.90
2023-04-20T12:44:53.000Z,10.23
2023-04-20T12:47:20.796Z,8.15
2023-04-20T12:49:48.375Z,7.10
2023-04-20T12:52:15.869Z,6.70
2023-04-20T12:54:44.271Z,7.22
2023-04-20T12:57:13.304Z,9.05
2023-04-20T13:02:08.077Z,7.40
2023-04-20T13:04:36.295Z,6.78
2023-04-20T13:07:03.866Z,7.18
2023-04-20T13:09:31.306Z,7.72
2023-04-20T13:11:59.035Z,7.30
2023-04-20T13:14:27.802Z,10.10
2023-04-20T13:19:23.368Z,8.80
2023-04-20T13:21:50.776Z,6.88
2023-04-20T13:24:20.491Z,5.65
2023-04-20T13:26:48.322Z,6.68
2023-04-20T13:29:15.731Z,8.07
2023-04-20T13:31:44.666Z,7.95
2023-04-20T13:34:12.147Z,7.72
2023-04-20T13:36:39.650Z,7.97
2023-04-20T13:39:07.257Z,6.90
2023-04-20T13:41:34.642Z,6.43
2023-04-20T13:44:02.591Z,8.05
2023-04-20T13:46:30.244Z,7.88
2023-04-20T13:48:59.326Z,8.20
2023-04-20T13:51:27.105Z,6.75
2023-04-20T13:53:54.488Z,7.07
2023-04-20T13:56:21.919Z,7.80
2023-04-20T13:58:49.363Z,9.23
2023-04-20T14:01:16.904Z,8.07
2023-04-20T14:03:44.944Z,6.80
2023-04-20T14:06:13.931Z,11.45
2023-04-20T14:11:08.977Z,9.65
2023-04-20T14:13:37.329Z,10.75
2023-04-20T14:16:09.238Z,8.70
2023-04-20T14:18:37.211Z,11.05
2023-04-20T14:21:04.798Z,9.82
2023-04-20T14:23:33.917Z,11.60
2023-04-20T14:26:03.766Z,9.38
2023-04-20T14:28:33.397Z,10.60
2023-04-20T14:31:01.687Z,9.27
2023-04-20T14:33:29.248Z,9.70
2023-04-20T14:35:56.630Z,9.40
2023-04-20T14:38:24.810Z,11.40
2023-04-20T14:40:53.885Z,9.18
2023-04-20T14:43:21.459Z,9.48
2023-04-20T14:45:50.529Z,9.55
2023-04-20T14:48:18.127Z,8.13
2023-04-20T14:50:45.690Z,8.60
2023-04-20T14:53:13.078Z,8.20
2023-04-20T14:55:40.731Z,6.97
2023-04-20T14:58:09.459Z,9.48
2023-04-20T15:03:04.616Z,6.90
2023-04-20T15:05:32.386Z,7.88
2023-04-20T15:08:00.005Z,8.40
2023-04-20T15:10:27.667Z,8.40
2023-04-20T15:12:55.129Z,9.18
2023-04-20T15:15:25.455Z,7.90
2023-04-20T15:17:55.492Z,8.75
2023-04-20T15:20:23.044Z,8.15
2023-04-20T15:22:50.527Z,8.20
2023-04-20T15:25:18.010Z,12.18
2023-04-20T15:27:45.574Z,8.98
2023-04-20T15:30:13.649Z,9.15
2023-04-20T15:32:42.494Z,7.85
2023-04-20T15:37:38.072Z,7.88
2023-04-20T15:40:07.631Z,7.80
2023-04-20T15:42:35.181Z,8.85
2023-04-20T15:45:03.009Z,9.43
2023-04-20T15:47:30.605Z,7.38
2023-04-20T15:50:01.556Z,12.02
2023-04-20T15:52:30.451Z,9.63
2023-04-20T15:54:58.278Z,10.13
2023-04-20T15:57:25.817Z,9.07
2023-04-20T15:59:53.249Z,10.93
2023-04-20T16:02:20.849Z,9.88
2023-04-20T16:04:48.530Z,7.78
2023-04-20T16:07:17.613Z,10.00
2023-04-20T16:09:45.134Z,10.45
2023-04-20T16:12:12.691Z,10.52
2023-04-20T16:14:40.257Z,9.18
2023-04-20T16:17:07.894Z,11.40
2023-04-20T16:19:35.370Z,12.05
2023-04-20T16:22:02.998Z,9.68
2023-04-20T16:24:31.820Z,9.80
2023-04-20T16:29:29.010Z,9.63
2023-04-20T16:31:56.533Z,9.07
2023-04-20T16:34:24.496Z,12.32
2023-04-20T16:36:52.001Z,9.48
2023-04-20T16:39:19.515Z,11.32
2023-04-20T16:41:48.342Z,11.45
2023-04-20T16:46:44.301Z,9.88
2023-04-20T16:49:11.896Z,10.60
2023-04-20T16:51:40.505Z,10.40
2023-04-20T16:54:09.181Z,9.63
2023-04-20T16:56:36.781Z,10.00
2023-04-20T16:59:06.120Z,7.95
2023-04-20T17:01:33.661Z,10.32
2023-04-20T17:04:01.590Z,9.52
2023-04-20T17:06:29.275Z,11.88
2023-04-20T17:09:01.349Z,11.13
2023-04-20T17:11:29.000Z,12.68
2023-04-20T17:13:56.426Z,13.63
2023-04-20T17:16:25.493Z,9.70
2023-04-20T17:18:53.434Z,11.57
2023-04-20T17:21:21.117Z,13.07
2023-04-20T17:23:48.607Z,14.63
2023-04-20T17:26:16.040Z,11.05
2023-04-20T17:28:43.385Z,12.27
2023-04-20T17:31:10.890Z,12.77
2023-04-20T17:33:39.666Z,10.65
2023-04-20T17:38:36.574Z,12.73
2023-04-20T17:41:04.851Z,13.95
2023-04-20T17:43:32.452Z,15.43
2023-04-20T17:46:00.576Z,12.85
2023-04-20T17:48:28.095Z,16.20
2023-04-20T17:50:58.727Z,13.25
2023-04-20T17:53:26.557Z,16.30
2023-04-20T17:55:53.971Z,13.73
2023-04-20T17:58:21.393Z,16.67
2023-04-20T18:00:48.791Z,17.98
2023-04-20T18:03:16.440Z,17.60
2023-04-20T18:05:44.072Z,14.45
2023-04-20T18:08:13.345Z,15.68
2023-04-20T18:10:40.989Z,18.30
2023-04-20T18:13:08.631Z,18.45
2023-04-20T18:15:36.048Z,14.10
2023-04-20T18:18:03.783Z,14.43
2023-04-20T18:20:32.510Z,12.48
2023-04-20T18:25:29.056Z,13.25
2023-04-20T18:30:23.932Z,12.73
2023-04-20T18:32:51.438Z,12.80
2023-04-20T18:35:19.378Z,13.73
2023-04-20T18:37:46.732Z,13.55
2023-04-20T18:40:16.081Z,12.60
2023-04-20T18:42:45.392Z,12.65
2023-04-20T18:47:40.870Z,13.95
2023-04-20T18:50:09.181Z,15.07
2023-04-20T18:52:36.656Z,13.35
2023-04-20T18:55:04.580Z,13.88
2023-04-20T18:57:32.056Z,13.27
2023-04-20T19:00:00.921Z,13.68
2023-04-20T19:04:55.960Z,13.35
2023-04-20T19:07:23.323Z,12.48
2023-04-20T19:09:53.744Z,13.52
2023-04-20T19:12:21.539Z,14.82
2023-04-20T19:14:49.570Z,15.02
2023-04-20T19:17:18.375Z,13.82
2023-04-20T19:19:45.999Z,13.52
2023-04-20T19:22:13.534Z,13.13
2023-04-20T19:24:41.020Z,12.57
2023-04-20T19:27:08.946Z,13.68
2023-04-20T19:29:37.215Z,12.43
2023-04-20T19:32:05.462Z,13.90
2023-04-20T19:34:36.419Z,12.25
2023-04-20T19:37:03.845Z,12.20
2023-04-20T19:39:33.617Z,11.25
2023-04-20T19:42:02.449Z,11.60
2023-04-20T19:44:29.908Z,12.68
2023-04-20T19:46:57.370Z,12.20
2023-04-20T19:49:24.837Z,10.88
2023-04-20T19:51:53.623Z,11.95
2023-04-20T19:56:48.507Z,11.73
2023-04-20T19:59:16.103Z,10.85
2023-04-20T20:01:43.746Z,11.50
2023-04-20T20:04:11.545Z,11.25
2023-04-20T20:06:39.179Z,11.45
2023-04-20T20:09:08.518Z,14.13
2023-04-20T20:11:35.891Z,14.00
2023-04-20T20:14:03.290Z,10.98
2023-04-20T20:16:31.033Z,12.77
2023-04-20T20:18:59.901Z,10.73
2023-04-20T20:23:54.692Z,12.07
2023-04-20T20:26:23.577Z,12.88
2023-04-20T20:28:51.056Z,11.20
2023-04-20T20:31:18.604Z,12.27
2023-04-20T20:33:46.054Z,16.15
2023-04-20T20:36:13.569Z,12.55
2023-04-20T20:38:41.238Z,12.95
2023-04-20T20:41:09.257Z,12.25
2023-04-20T20:43:38.152Z,13.20
2023-04-20T20:46:05.773Z,9.38
2023-04-20T20:48:33.224Z,9.05
2023-04-20T20:51:00.720Z,7.55
2023-04-20T20:53:28.440Z,8.52
2023-04-20T20:55:55.851Z,11.77
2023-04-20T20:58:23.207Z,7.85
2023-04-20T21:00:52.169Z,8.73
2023-04-20T21:03:19.781Z,8.15
2023-04-20T21:05:47.409Z,9.10
2023-04-20T21:08:17.258Z,9.27
2023-04-20T21:10:44.856Z,11.35
2023-04-20T21:13:12.546Z,14.38
2023-04-20T21:15:40.607Z,12.45
2023-04-20T21:18:09.397Z,14.23
2023-04-20T21:20:36.846Z,13.35
2023-04-20T21:23:04.447Z,15.18
2023-04-20T21:25:32.016Z,18.77
2023-04-20T21:27:59.522Z,16.45
2023-04-20T21:30:28.217Z,19.90
2023-04-20T21:32:56.130Z,14.98
2023-04-20T21:35:25.111Z,19.25
2023-04-20T21:40:19.970Z,17.25
2023-04-20T21:42:47.481Z,15.48
2023-04-20T21:45:15.155Z,16.35
2023-04-20T21:47:42.722Z,15.45
2023-04-20T21:50:11.102Z,16.25
2023-04-20T21:52:39.940Z,17.92
2023-04-20T21:55:07.921Z,17.20
2023-04-20T21:57:35.314Z,23.00
2023-04-20T22:00:03.014Z,13.45
2023-04-20T22:02:42.169Z,15.20
2023-04-20T22:05:11.400Z,15.77
2023-04-20T22:07:40.285Z,17.17
2023-04-20T22:10:08.876Z,17.25
2023-04-20T22:12:40.781Z,16.55
2023-04-20T22:15:10.034Z,18.70
2023-04-20T22:17:38.037Z,15.07
2023-04-20T22:20:07.845Z,15.38
2023-04-20T22:22:36.060Z,14.52
2023-04-20T22:25:06.099Z,16.58
2023-04-20T22:27:34.535Z,15.27
2023-04-20T22:30:02.244Z,15.80
2023-04-20T22:32:29.844Z,16.38
2023-04-20T22:34:57.265Z,15.30
2023-04-20T22:37:24.713Z,14.18
2023-04-20T22:39:52.104Z,14.95
2023-04-20T22:42:20.881Z,16.27
2023-04-20T22:44:48.301Z,15.27
2023-04-20T22:47:15.775Z,13.55
2023-04-20T22:49:43.304Z,12.95
2023-04-20T22:52:10.900Z,14.82
2023-04-20T22:54:38.275Z,15.48
2023-04-20T22:57:06.052Z,14.20
2023-04-20T22:59:34.828Z,13.95
2023-04-20T23:02:02.360Z,14.60
2023-04-20T23:04:29.840Z,13.55
2023-04-20T23:06:57.649Z,14.50
2023-04-20T23:09:25.554Z,12.85
2023-04-20T23:11:53.759Z,13.02
2023-04-20T23:14:24.344Z,14.57
2023-04-20T23:16:53.290Z,15.73
2023-04-20T23:21:48.606Z,17.50
2023-04-20T23:24:16.104Z,18.65
2023-04-20T23:26:43.473Z,16.50
2023-04-20T23:29:11.000Z,14.65
2023-04-20T23:31:38.513Z,18.10
2023-04-20T23:34:07.295Z,19.58
2023-04-20T23:36:34.791Z,17.10
2023-04-20T23:39:02.229Z,19.20
2023-04-20T23:41:29.738Z,16.38
2023-04-20T23:43:57.254Z,14.05
2023-04-20T23:46:24.720Z,14.90
2023-04-20T23:48:52.307Z,17.08
2023-04-20T23:51:21.260Z,18.20
2023-04-20T23:53:48.646Z,13.70
2023-04-20T23:56:16.092Z,16.38
2023-04-20T23:58:43.510Z,15.27
